Time;durP1;ratioP1;P1;durP2;ratioP2;P2;SDS_P1;SDS_P2;PMS_P1;PMS_P2;Temp;Humidity;BMP_temperature;BMP_pressure;BME280_temperature;BME280_humidity;BME280_pressure;Samples;Min_cycle;Max_cycle;Signal;HPM_P1;HPM_P2
2022/12/20 00:01:33;;;;;;;46.70;15.93;;;;;;;-2.18;100.00;100421.28;4468967;32;20439;-73
2022/12/20 00:04:04;;;;;;;56.70;19.05;;;;;;;-2.25;100.00;100424.81;4469354;32;20177;-74
2022/12/20 00:06:35;;;;;;;53.80;17.77;;;;;;;-2.24;100.00;100424.78;4468942;32;20097;-73
2022/12/20 00:09:05;;;;;;;49.80;17.45;;;;;;;-2.14;100.00;100440.94;4475284;32;20100;-74
2022/12/20 00:11:33;;;;;;;33.65;14.07;;;;;;;-2.02;100.00;100443.38;4484613;32;20844;-74
2022/12/20 00:14:00;;;;;;;46.63;16.17;;;;;;;-2.12;100.00;100440.94;4484758;31;20100;-73
2022/12/20 00:16:28;;;;;;;51.28;17.75;;;;;;;-2.07;100.00;100444.31;4484467;31;20120;-73
2022/12/20 00:18:58;;;;;;;51.88;16.95;;;;;;;-2.05;100.00;100445.97;4484688;32;20150;-73
2022/12/20 00:21:25;;;;;;;48.35;16.08;;;;;;;-2.04;100.00;100446.84;4476402;31;20405;-74
2022/12/20 00:23:53;;;;;;;50.42;15.88;;;;;;;-2.19;100.00;100435.03;4469016;32;20088;-74
2022/12/20 00:26:23;;;;;;;41.08;17.23;;;;;;;-2.12;100.00;100446.91;4469259;32;20164;-74
2022/12/20 00:28:52;;;;;;;38.45;14.75;;;;;;;-2.02;100.00;100432.25;4469128;32;20111;-74
2022/12/20 00:31:20;;;;;;;37.35;14.50;;;;;;;-2.04;100.00;100427.16;4468822;32;20093;-74
2022/12/20 00:33:50;;;;;;;36.90;14.18;;;;;;;-1.96;100.00;100414.22;4469150;32;20104;-73
2022/12/20 00:36:17;;;;;;;36.90;15.60;;;;;;;-2.05;100.00;100417.72;4468716;32;20553;-74
2022/12/20 00:38:46;;;;;;;34.90;15.35;;;;;;;-2.10;100.00;100411.81;4468772;32;20116;-74
2022/12/20 00:41:16;;;;;;;49.95;17.30;;;;;;;-2.04;100.00;100414.31;4468890;32;20879;-74
2022/12/20 00:43:43;;;;;;;38.72;13.95;;;;;;;-1.93;100.00;100413.34;4467477;32;20115;-74
2022/12/20 00:46:11;;;;;;;38.25;14.55;;;;;;;-1.93;100.00;100426.19;4468707;32;20444;-73
2022/12/20 00:48:39;;;;;;;37.15;14.30;;;;;;;-1.97;100.00;100409.94;4468639;32;20522;-73
2022/12/20 00:51:09;;;;;;;42.58;14.87;;;;;;;-2.05;100.00;100401.50;4468723;32;20118;-73
2022/12/20 00:53:37;;;;;;;34.20;14.32;;;;;;;-2.00;100.00;100395.44;4468507;32;20101;-74
2022/12/20 00:56:06;;;;;;;41.40;15.20;;;;;;;-2.06;100.00;100399.78;4468637;32;20157;-74
2022/12/20 00:58:37;;;;;;;31.37;13.62;;;;;;;-2.11;100.00;100381.84;4468544;32;20143;-74
2022/12/20 01:01:13;;;;;;;43.20;16.48;;;;;;;-1.90;100.00;100383.31;4468488;32;20110;-73
2022/12/20 01:03:40;;;;;;;33.22;11.80;;;;;;;-1.72;100.00;100395.09;4468719;32;20127;-74
2022/12/20 01:06:09;;;;;;;47.35;17.83;;;;;;;-1.80;100.00;100394.34;4468500;32;20089;-73
2022/12/20 01:08:36;;;;;;;47.05;15.55;;;;;;;-1.81;100.00;100387.50;4470440;32;20257;-74
2022/12/20 01:11:06;;;;;;;45.55;16.92;;;;;;;-1.79;100.00;100389.19;4484177;31;20545;-74
2022/12/20 01:13:35;;;;;;;41.42;14.85;;;;;;;-1.84;100.00;100382.41;4483934;31;20151;-74
2022/12/20 01:16:12;;;;;;;46.92;16.05;;;;;;;-1.75;100.00;100390.00;4483852;31;20128;-74
2022/12/20 01:18:40;;;;;;;27.65;11.68;;;;;;;-1.73;100.00;100388.25;4483907;32;20145;-74
2022/12/20 01:21:10;;;;;;;44.85;16.77;;;;;;;-1.75;100.00;100387.44;4477759;31;20126;-74
2022/12/20 01:23:38;;;;;;;31.45;12.88;;;;;;;-1.73;100.00;100393.37;4468087;32;20562;-74
2022/12/20 01:26:08;;;;;;;36.92;13.95;;;;;;;-1.74;100.00;100389.13;4468256;32;20097;-74
2022/12/20 01:28:36;;;;;;;50.20;18.37;;;;;;;-1.76;100.00;100390.84;4468427;32;20123;-74
2022/12/20 01:31:11;;;;;;;44.60;15.75;;;;;;;-1.73;100.00;100389.97;4468229;32;20077;-74
2022/12/20 01:33:39;;;;;;;38.58;16.35;;;;;;;-1.79;100.00;100381.50;4467948;32;20096;-74
2022/12/20 01:36:10;;;;;;;42.47;16.80;;;;;;;-1.76;100.00;100369.47;4468098;32;20152;-73
2022/12/20 01:38:37;;;;;;;44.22;17.30;;;;;;;-1.81;100.00;100354.12;4468025;32;20092;-73
2022/12/20 01:41:05;;;;;;;43.80;15.30;;;;;;;-1.72;100.00;100345.44;4467787;32;20145;-73
2022/12/20 01:43:56;;;;;;;52.20;18.08;;;;;;;-1.87;100.00;100346.50;4467914;32;20122;-73
2022/12/20 01:46:26;;;;;;;44.25;15.02;;;;;;;-1.89;100.00;100351.66;4467830;32;20153;-73
2022/12/20 01:49:01;;;;;;;41.28;15.38;;;;;;;-1.91;100.00;100331.97;4468030;32;20551;-73
2022/12/20 01:51:31;;;;;;;31.55;12.95;;;;;;;-1.82;100.00;100342.13;4468831;32;20089;-74
2022/12/20 01:54:19;;;;;;;39.15;17.48;;;;;;;-2.01;100.00;100334.66;4470086;32;20157;-74
2022/12/20 01:56:52;;;;;;;35.17;13.95;;;;;;;-1.99;100.00;100335.47;4468917;32;20170;-73
2022/12/20 01:59:19;;;;;;;38.30;13.88;;;;;;;-1.97;100.00;100322.63;4470395;32;20097;-74
2022/12/20 02:01:46;;;;;;;47.08;15.98;;;;;;;-2.00;100.00;100318.41;4468751;32;20577;-74
2022/12/20 02:04:14;;;;;;;35.47;13.90;;;;;;;-1.98;100.00;100321.78;4468570;32;20127;-74
2022/12/20 02:06:42;;;;;;;39.72;15.18;;;;;;;-2.00;100.00;100318.41;4469987;32;20144;-74
2022/12/20 02:09:09;;;;;;;26.08;11.63;;;;;;;-2.06;100.00;100323.62;4476766;32;20172;-74
2022/12/20 02:11:40;;;;;;;40.75;14.80;;;;;;;-2.14;100.00;100297.16;4485603;31;20096;-74
2022/12/20 02:14:47;;;;;;;33.92;13.88;;;;;;;-2.19;100.00;100291.25;4485555;31;20140;-74
2022/12/20 02:17:47;;;;;;;41.08;14.43;;;;;;;-2.10;100.00;100298.84;4485667;32;20151;-74
2022/12/20 02:20:21;;;;;;;39.67;14.18;;;;;;;-2.21;100.00;100295.53;4421111;32;20519;-74
2022/12/20 02:22:51;;;;;;;;;;;;;;;-2.26;100.00;100294.75;4409034;32;20797;-74
2022/12/20 02:25:28;;;;;;;46.35;16.58;;;;;;;-2.14;100.00;100297.16;4421438;32;20005;-74
2022/12/20 02:28:23;;;;;;;35.25;13.10;;;;;;;-2.17;100.00;100294.63;4421275;32;20284;-73
2022/12/20 02:30:53;;;;;;;32.38;12.68;;;;;;;-2.20;100.00;100315.22;4421178;32;20090;-73
2022/12/20 02:33:24;;;;;;;34.75;14.32;;;;;;;-2.12;100.00;100303.12;4409016;32;20094;-73
2022/12/20 02:35:51;;;;;;;30.10;12.23;;;;;;;-2.17;100.00;100300.63;4408268;32;20101;-73
2022/12/20 02:38:30;;;;;;;36.90;11.85;;;;;;;-2.12;100.00;100292.84;4421002;32;20181;-74
2022/12/20 02:41:02;;;;;;;36.33;13.93;;;;;;;-2.07;100.00;100279.97;4421149;32;20126;-74
2022/12/20 02:46:18;;;;;;;39.47;14.75;;;;;;;-2.10;100.00;100280.03;4410187;32;20132;-73
2022/12/20 02:48:46;;;;;;;38.75;13.93;;;;;;;-2.18;100.00;100287.78;4408509;32;20109;-73
2022/12/20 02:51:15;;;;;;;49.05;15.50;;;;;;;-2.08;100.00;100288.53;4408331;32;20133;-74
2022/12/20 02:53:43;;;;;;;30.80;13.40;;;;;;;-2.02;100.00;100278.19;4421059;32;20178;-73
2022/12/20 02:56:23;;;;;;;44.65;16.95;;;;;;;-1.94;100.00;100275.53;4421847;32;20109;-74
2022/12/20 02:59:03;;;;;;;41.17;15.55;;;;;;;-2.07;100.00;100279.97;4469002;32;20105;-73
2022/12/20 03:01:33;;;;;;;32.92;13.70;;;;;;;-2.01;100.00;100257.63;4467454;32;20068;-74
2022/12/20 03:04:00;;;;;;;38.53;15.35;;;;;;;-2.05;100.00;100250.81;4468642;32;20578;-73
2022/12/20 03:06:29;;;;;;;49.75;16.60;;;;;;;-2.05;100.00;100253.41;4469649;32;20105;-73
2022/12/20 03:08:57;;;;;;;32.97;13.55;;;;;;;-2.02;100.00;100266.19;4475140;32;20126;-73
2022/12/20 03:11:25;;;;;;;32.58;12.65;;;;;;;-2.07;100.00;100257.72;4485334;31;20453;-73
2022/12/20 03:13:52;;;;;;;30.10;12.63;;;;;;;-2.02;100.00;100263.63;4485333;31;20093;-73
2022/12/20 03:16:19;;;;;;;37.30;14.07;;;;;;;-2.20;100.00;100269.00;4485323;31;20100;-74
2022/12/20 03:18:47;;;;;;;34.97;13.13;;;;;;;-2.28;100.00;100269.09;4485368;31;20164;-74
2022/12/20 03:21:14;;;;;;;42.40;16.30;;;;;;;-2.23;100.00;100271.63;4478528;31;20223;-73
2022/12/20 03:23:41;;;;;;;22.33;10.82;;;;;;;-2.28;100.00;100263.97;4469562;32;20080;-73
2022/12/20 03:26:09;;;;;;;38.53;14.57;;;;;;;-2.34;100.00;100254.63;4469625;32;20100;-74
2022/12/20 03:28:36;;;;;;;30.27;13.48;;;;;;;-2.39;100.00;100251.28;4469906;32;20169;-73
2022/12/20 03:31:04;;;;;;;38.15;15.27;;;;;;;-2.43;100.00;100254.75;4469714;32;20160;-74
2022/12/20 03:33:33;;;;;;;33.92;13.80;;;;;;;-2.39;100.00;100256.41;4469416;32;20165;-73
2022/12/20 03:36:04;;;;;;;37.55;14.87;;;;;;;-2.40;100.00;100267.53;4469853;32;20189;-73
2022/12/20 03:38:32;;;;;;;31.17;13.10;;;;;;;-2.22;100.00;100265.62;4469241;32;20420;-73
2022/12/20 03:40:59;;;;;;;39.97;15.02;;;;;;;-2.35;100.00;100262.34;4469244;32;20520;-73
2022/12/20 03:43:26;;;;;;;43.28;14.87;;;;;;;-2.27;100.00;100262.25;4469411;32;20111;-73
2022/12/20 03:45:53;;;;;;;36.33;13.93;;;;;;;-2.22;100.00;100269.03;4468999;32;20228;-73
2022/12/20 03:48:21;;;;;;;40.80;15.75;;;;;;;-2.08;100.00;100265.44;4469731;32;20103;-73
2022/12/20 03:50:48;;;;;;;45.20;15.50;;;;;;;-1.99;100.00;100268.72;4469182;32;20113;-73
2022/12/20 03:53:15;;;;;;;42.50;15.95;;;;;;;-2.25;100.00;100260.53;4469335;32;20092;-74
2022/12/20 03:55:43;;;;;;;30.05;14.57;;;;;;;-2.10;100.00;100265.47;4469526;32;20104;-73
2022/12/20 03:58:12;;;;;;;35.17;12.37;;;;;;;-2.08;100.00;100250.87;4469611;32;20156;-73
2022/12/20 04:00:39;;;;;;;40.67;14.10;;;;;;;-2.11;100.00;100248.34;4469399;32;20116;-73
2022/12/20 04:03:11;;;;;;;43.97;16.00;;;;;;;-2.15;100.00;100244.97;4469348;32;20077;-73
2022/12/20 04:05:38;;;;;;;38.80;15.20;;;;;;;-2.11;100.00;100248.34;4469207;32;20123;-73
2022/12/20 04:08:05;;;;;;;37.03;13.50;;;;;;;-2.16;100.00;100250.13;4469341;32;20175;-73
2022/12/20 04:11:14;;;;;;;38.58;14.50;;;;;;;-2.07;100.00;100239.75;4469317;32;20100;-73
2022/12/20 04:13:20;;;;;;;30.17;12.70;;;;;;;-2.15;100.00;100231.28;4468881;32;20457;-73
2022/12/20 04:15:47;;;;;;;38.08;12.27;;;;;;;-2.21;100.00;100227.09;4468723;32;20169;-73
2022/12/20 04:18:16;;;;;;;43.00;15.45;;;;;;;-2.23;100.00;100210.84;4469076;32;20457;-74
2022/12/20 04:20:44;;;;;;;46.28;14.40;;;;;;;-2.18;100.00;100219.34;4472766;32;20111;-73
2022/12/20 04:23:12;;;;;;;42.00;15.88;;;;;;;-2.30;100.00;100210.94;4485019;31;20123;-74
2022/12/20 04:25:39;;;;;;;36.10;13.68;;;;;;;-2.25;100.00;100209.19;4484830;32;20099;-73
2022/12/20 04:28:08;;;;;;;35.00;12.35;;;;;;;-2.19;100.00;100199.69;4484820;31;20112;-73
2022/12/20 04:30:36;;;;;;;42.58;13.52;;;;;;;-2.15;100.00;100193.63;4484886;32;20100;-73
2022/12/20 04:33:04;;;;;;;44.50;15.63;;;;;;;-2.18;100.00;100195.38;4484919;31;20156;-73
2022/12/20 04:35:31;;;;;;;38.53;12.93;;;;;;;-2.11;100.00;100197.00;4484745;32;20187;-73
2022/12/20 04:38:00;;;;;;;25.45;12.35;;;;;;;-2.18;100.00;100191.09;4484907;32;20591;-74
2022/12/20 04:40:27;;;;;;;32.08;11.18;;;;;;;-2.08;100.00;100189.25;4484638;31;20109;-73
2022/12/20 04:42:55;;;;;;;46.33;15.63;;;;;;;-2.17;100.00;100189.37;4484762;32;20164;-73
2022/12/20 04:45:22;;;;;;;40.90;16.55;;;;;;;-2.12;100.00;100205.56;4484526;31;20457;-73
2022/12/20 04:47:50;;;;;;;35.35;13.65;;;;;;;-2.06;100.00;100205.50;4484819;31;20118;-74
2022/12/20 04:50:19;;;;;;;36.40;13.13;;;;;;;-2.15;100.00;100208.16;4484715;32;20473;-73
2022/12/20 04:55:37;;;;;;;39.60;15.77;;;;;;;-2.25;100.00;100217.72;4484638;31;20114;-73
2022/12/20 04:58:05;;;;;;;31.95;13.95;;;;;;;-2.11;100.00;100219.25;4484443;31;20525;-74
2022/12/20 05:00:34;;;;;;;43.42;15.85;;;;;;;-2.09;100.00;100213.25;4484423;31;20097;-73
2022/12/20 05:03:02;;;;;;;29.92;13.23;;;;;;;-2.10;100.00;100216.69;4483949;32;20101;-74
2022/12/20 05:05:30;;;;;;;33.35;13.40;;;;;;;-2.08;100.00;100222.63;4483557;31;20487;-74
2022/12/20 05:07:57;;;;;;;33.72;12.50;;;;;;;-2.04;100.00;100219.16;4483412;31;20143;-74
2022/12/20 05:10:25;;;;;;;37.60;12.75;;;;;;;-1.99;100.00;100227.63;4483417;31;20122;-74
2022/12/20 05:12:53;;;;;;;37.22;14.23;;;;;;;-1.98;100.00;100234.47;4482085;31;20516;-74
2022/12/20 05:15:20;;;;;;;39.42;14.20;;;;;;;-2.06;100.00;100235.44;4483329;32;20366;-74
2022/12/20 05:17:47;;;;;;;36.97;14.45;;;;;;;-1.86;100.00;100233.44;4483388;32;20607;-73
2022/12/20 05:20:15;;;;;;;28.27;12.52;;;;;;;-1.89;100.00;100235.19;4483066;31;20461;-74
2022/12/20 05:26:16;;;;;;;42.30;13.70;;;;;;;-1.79;100.00;100237.63;4484907;31;20088;-75
2022/12/20 05:28:36;;;;;;;30.95;11.48;;;;;;;-1.81;100.00;100241.94;4485853;31;20148;-74
2022/12/20 05:31:03;;;;;;;42.22;15.18;;;;;;;-1.76;100.00;100246.16;4485833;31;20108;-74
2022/12/20 05:33:31;;;;;;;33.20;10.90;;;;;;;-1.82;100.00;100240.25;4477549;31;20092;-74
2022/12/20 05:36:01;;;;;;;33.03;12.85;;;;;;;-1.91;100.00;100242.09;4483970;32;20100;-74
2022/12/20 05:38:28;;;;;;;22.20;9.10;;;;;;;-1.99;100.00;100237.06;4477122;31;20168;-74
2022/12/20 05:40:56;;;;;;;25.88;10.98;;;;;;;-1.83;100.00;100227.44;4472070;32;20093;-74
2022/12/20 05:43:23;;;;;;;40.92;12.50;;;;;;;-1.77;100.00;100226.47;4481531;31;20104;-74
2022/12/20 05:45:52;;;;;;;29.10;11.90;;;;;;;-1.80;100.00;100237.66;4476750;32;20108;-74
2022/12/20 05:48:20;;;;;;;27.87;11.02;;;;;;;-1.81;100.00;100231.66;4474117;31;20154;-74
2022/12/20 05:50:47;;;;;;;37.42;12.93;;;;;;;-1.76;100.00;100218.72;4478563;32;20371;-74
2022/12/20 05:53:16;;;;;;;31.67;12.10;;;;;;;-1.78;100.00;100225.62;4482277;31;20123;-74
2022/12/20 05:55:49;;;;;;;27.35;11.30;;;;;;;-1.83;100.00;100224.88;4476712;32;20099;-74
2022/12/20 05:58:17;;;;;;;33.07;12.13;;;;;;;-1.86;100.00;100212.03;4478559;31;20118;-74
2022/12/20 06:00:46;;;;;;;35.88;12.73;;;;;;;-1.78;100.00;100212.78;4481028;31;20092;-74
2022/12/20 06:03:16;;;;;;;32.75;14.13;;;;;;;-1.82;100.00;100213.69;4476736;32;20176;-74
2022/12/20 06:05:44;;;;;;;35.90;12.37;;;;;;;-1.92;100.00;100207.00;4477545;32;20152;-74
2022/12/20 06:08:12;;;;;;;32.53;13.00;;;;;;;-1.93;100.00;100210.44;4479677;32;20113;-73
2022/12/20 06:10:40;;;;;;;34.45;12.82;;;;;;;-1.94;100.00;100204.44;4480967;31;20096;-74
2022/12/20 06:13:08;;;;;;;26.83;9.43;;;;;;;-1.90;100.00;100200.13;4482174;31;20148;-74
2022/12/20 06:15:37;;;;;;;27.70;9.63;;;;;;;-1.93;100.00;100190.75;4482220;32;20112;-74
2022/12/20 06:18:05;;;;;;;33.20;12.27;;;;;;;-1.89;100.00;100187.25;4483488;32;20498;-74
2022/12/20 06:20:34;;;;;;;34.20;11.93;;;;;;;-1.85;100.00;100190.63;4482279;32;20409;-74
2022/12/20 06:23:02;;;;;;;34.20;12.00;;;;;;;-1.96;100.00;100193.34;4478664;32;20169;-74
2022/12/20 06:25:31;;;;;;;30.37;11.82;;;;;;;-1.92;100.00;100191.59;4478582;32;20120;-74
2022/12/20 06:27:59;;;;;;;25.12;11.60;;;;;;;-1.88;100.00;100183.81;4479896;32;20662;-74
2022/12/20 06:30:26;;;;;;;36.25;12.30;;;;;;;-2.00;100.00;100195.12;4476319;32;20227;-74
2022/12/20 06:33:00;;;;;;;;;;;;;;;-1.90;100.00;100193.25;4469817;32;20144;-74
2022/12/20 06:35:29;;;;;;;43.50;11.23;;;;;;;-1.93;100.00;100190.75;4472522;31;20663;-75
2022/12/20 06:37:56;;;;;;;26.10;9.95;;;;;;;-1.91;100.00;100177.88;4477554;31;20183;-75
2022/12/20 06:40:23;;;;;;;27.67;11.70;;;;;;;-2.07;100.00;100192.69;4477620;32;20386;-75
2022/12/20 06:42:51;;;;;;;33.35;9.55;;;;;;;-2.04;100.00;100188.34;4476635;31;20123;-74
2022/12/20 06:45:19;;;;;;;37.22;11.38;;;;;;;-1.99;100.00;100180.56;4476712;31;20531;-74
2022/12/20 06:47:47;;;;;;;28.20;10.02;;;;;;;-1.92;100.00;100182.19;4479141;31;20112;-73
2022/12/20 06:50:14;;;;;;;35.53;10.93;;;;;;;-1.91;100.00;100175.31;4476086;31;20092;-74
2022/12/20 06:52:41;;;;;;;28.87;10.88;;;;;;;-1.89;100.00;100181.25;4476397;32;20089;-72
2022/12/20 06:55:09;;;;;;;42.05;13.20;;;;;;;-1.99;100.00;100171.12;4477127;31;20151;-72
2022/12/20 06:57:37;;;;;;;44.00;13.50;;;;;;;-2.06;100.00;100166.97;4475990;32;20130;-71
2022/12/20 07:00:07;;;;;;;27.95;11.23;;;;;;;-2.06;100.00;100169.56;4481652;31;20119;-72
2022/12/20 07:02:35;;;;;;;28.65;12.15;;;;;;;-1.90;100.00;100159.88;4476244;32;20101;-72
2022/12/20 07:05:02;;;;;;;34.15;12.10;;;;;;;-1.89;100.00;100165.84;4473471;31;20126;-72
2022/12/20 07:07:29;;;;;;;24.23;9.13;;;;;;;-1.87;100.00;100159.00;4475203;32;20100;-72
2022/12/20 07:09:57;;;;;;;27.20;11.35;;;;;;;-1.84;100.00;100158.94;4473141;32;20144;-72
2022/12/20 07:12:24;;;;;;;28.55;10.90;;;;;;;-1.84;100.00;100158.94;4467122;32;20491;-73
2022/12/20 07:14:51;;;;;;;32.53;13.35;;;;;;;-1.86;100.00;100161.53;4471960;32;20417;-72
2022/12/20 07:17:19;;;;;;;24.65;11.57;;;;;;;-1.89;100.00;100161.59;4473965;32;20093;-71
2022/12/20 07:19:46;;;;;;;27.27;11.15;;;;;;;-1.79;100.00;100158.00;4476499;32;20112;-72
2022/12/20 07:22:17;;;;;;;33.35;12.45;;;;;;;-1.71;100.00;100150.16;4473747;32;20171;-72
2022/12/20 07:24:44;;;;;;;25.40;11.48;;;;;;;-1.69;100.00;100157.84;4475265;31;20458;-73
2022/12/20 07:27:11;;;;;;;36.38;12.80;;;;;;;-1.70;100.00;100167.25;4472060;31;20154;-72
2022/12/20 07:29:40;;;;;;;32.30;11.88;;;;;;;-1.59;100.00;100168.81;4471028;31;20488;-73
2022/12/20 07:32:08;;;;;;;30.88;10.90;;;;;;;-1.55;100.00;100178.16;4474380;32;20118;-72
2022/12/20 07:34:36;;;;;;;26.50;11.95;;;;;;;-1.56;100.00;100177.34;4479737;31;20854;-74
2022/12/20 07:37:03;;;;;;;39.65;13.80;;;;;;;-1.57;100.00;100187.62;4476523;31;20537;-73
2022/12/20 07:39:31;;;;;;;30.15;11.77;;;;;;;-1.55;100.00;100185.87;4481897;31;20372;-73
2022/12/20 07:41:58;;;;;;;27.05;11.52;;;;;;;-1.54;100.00;100185.84;4480408;32;20135;-72
2022/12/20 07:44:25;;;;;;;30.70;10.98;;;;;;;-1.62;100.00;100178.28;4475738;32;20134;-72
2022/12/20 07:46:53;;;;;;;33.58;12.85;;;;;;;-1.53;100.00;100176.41;4474591;32;20104;-73
2022/12/20 07:49:20;;;;;;;25.52;10.07;;;;;;;-1.54;100.00;100172.16;4479768;31;20097;-72
2022/12/20 07:51:52;;;;;;;30.17;12.13;;;;;;;-1.43;100.00;100165.09;4477101;31;20153;-71
2022/12/20 07:54:31;;;;;;;28.98;12.18;;;;;;;-1.52;100.00;100165.25;4480632;31;20108;-70
2022/12/20 07:57:01;;;;;;;29.63;10.80;;;;;;;-1.51;100.00;100143.84;4478337;32;20149;-71
2022/12/20 07:59:34;;;;;;;43.28;12.00;;;;;;;-1.34;100.00;100144.38;4477909;31;20434;-71
2022/12/20 08:02:01;;;;;;;29.45;11.02;;;;;;;-1.30;100.00;100145.19;4477947;32;20079;-70
2022/12/20 08:04:33;;;;;;;27.80;11.35;;;;;;;-1.32;100.00;100144.34;4478973;31;20164;-70
2022/12/20 08:07:00;;;;;;;24.80;11.63;;;;;;;-1.38;100.00;100150.44;4488916;31;20097;-73
2022/12/20 08:09:29;;;;;;;35.83;12.98;;;;;;;-1.29;100.00;100140.00;4477686;31;20095;-72
2022/12/20 08:11:57;;;;;;;25.42;11.32;;;;;;;-1.20;100.00;100131.25;4474037;32;20126;-71
2022/12/20 08:14:24;;;;;;;32.58;10.95;;;;;;;-1.19;100.00;100122.66;4473412;32;20104;-71
2022/12/20 08:16:52;;;;;;;33.88;13.98;;;;;;;-1.23;100.00;100122.75;4482521;32;20108;-72
2022/12/20 08:19:19;;;;;;;29.85;11.45;;;;;;;-1.19;100.00;100119.25;4475837;31;20164;-70
2022/12/20 08:21:48;;;;;;;31.17;11.18;;;;;;;-1.10;100.00;100126.78;4480818;32;20079;-73
2022/12/20 08:24:15;;;;;;;28.25;11.50;;;;;;;-1.14;100.00;100132.88;4481815;31;20133;-72
2022/12/20 08:26:42;;;;;;;35.10;12.32;;;;;;;-1.13;100.00;100137.16;4481938;32;20096;-72
2022/12/20 08:29:10;;;;;;;21.90;9.57;;;;;;;-1.12;100.00;100133.66;4480453;31;20100;-72
2022/12/20 08:31:38;;;;;;;26.10;10.57;;;;;;;-1.05;100.00;100124.13;4478604;31;20461;-71
2022/12/20 08:34:13;;;;;;;36.72;13.85;;;;;;;-1.16;100.00;100121.78;4475608;32;20168;-71
2022/12/20 08:36:41;;;;;;;37.90;12.40;;;;;;;-1.04;100.00;100123.25;4482810;31;20089;-71
2022/12/20 08:39:08;;;;;;;38.92;12.85;;;;;;;-1.17;100.00;100133.75;4481159;31;20486;-72
2022/12/20 08:41:36;;;;;;;41.35;10.45;;;;;;;-1.11;100.00;100125.94;4479219;31;20112;-72
2022/12/20 08:44:04;;;;;;;29.67;13.10;;;;;;;-1.00;100.00;100123.16;4472696;32;20100;-72
2022/12/20 08:46:31;;;;;;;25.62;10.00;;;;;;;-1.02;100.00;100121.50;4473043;32;20473;-71
2022/12/20 08:49:01;;;;;;;29.87;10.80;;;;;;;-0.94;100.00;100124.75;4481451;31;20178;-72
2022/12/20 08:51:28;;;;;;;26.20;10.65;;;;;;;-0.81;100.00;100118.47;4477979;31;20108;-71
2022/12/20 08:53:56;;;;;;;29.87;11.15;;;;;;;-0.85;100.00;100116.00;4479642;31;20145;-70
2022/12/20 08:56:23;;;;;;;33.88;11.88;;;;;;;-0.72;100.00;100114.87;4471922;32;20108;-70
2022/12/20 08:58:50;;;;;;;37.35;12.75;;;;;;;-0.63;100.00;100117.25;4478633;31;20089;-69
2022/12/20 09:01:19;;;;;;;32.45;11.20;;;;;;;-0.55;100.00;100123.06;4481444;31;20143;-72
2022/12/20 09:03:47;;;;;;;35.42;12.23;;;;;;;-0.44;100.00;100116.84;4477447;32;20096;-72
2022/12/20 09:06:19;;;;;;;34.35;13.00;;;;;;;-0.32;100.00;100118.28;4473332;31;20452;-72
2022/12/20 09:08:48;;;;;;;38.88;10.63;;;;;;;-0.20;100.00;100121.44;4478010;32;20387;-72
2022/12/20 09:11:20;;;;;;;22.27;9.20;;;;;;;-0.31;100.00;100138.03;4474719;32;21001;-72
2022/12/20 09:13:49;;;;;;;33.78;11.43;;;;;;;-0.35;100.00;100142.37;4477831;32;20140;-71
2022/12/20 09:16:18;;;;;;;31.58;11.45;;;;;;;-0.01;100.00;100147.59;4476800;31;20132;-71
2022/12/20 09:18:49;;;;;;;37.63;11.75;;;;;;;0.03;100.00;100132.06;4480544;32;20080;-71
2022/12/20 09:21:18;;;;;;;33.20;12.02;;;;;;;-0.01;100.00;100147.59;4482002;32;20163;-72
2022/12/20 09:23:45;;;;;;;25.73;10.85;;;;;;;0.09;100.00;100137.06;4484467;32;20144;-73
2022/12/20 09:26:14;;;;;;;20.42;9.02;;;;;;;0.22;100.00;100135.06;4482984;31;20104;-72
2022/12/20 09:28:42;;;;;;;25.20;11.02;;;;;;;0.03;100.00;100132.06;4479491;32;20114;-73
2022/12/20 09:31:14;;;;;;;24.87;10.35;;;;;;;0.02;100.00;100131.25;4484494;31;20096;-74
2022/12/20 09:33:44;;;;;;;31.20;11.07;;;;;;;0.09;100.00;100119.03;4481886;31;20152;-73
2022/12/20 09:36:13;;;;;;;30.42;11.80;;;;;;;0.04;100.00;100100.28;4479743;32;20092;-74
2022/12/20 09:38:40;;;;;;;25.70;10.57;;;;;;;-0.16;100.00;100093.03;4483212;32;20112;-72
2022/12/20 09:41:18;;;;;;;26.42;10.20;;;;;;;0.07;100.00;100095.91;4482428;32;20171;-72
2022/12/20 09:43:49;;;;;;;33.85;11.40;;;;;;;-0.01;100.00;100096.09;4478824;32;20126;-72
2022/12/20 09:46:16;;;;;;;28.02;9.68;;;;;;;0.03;100.00;100078.84;4482849;31;20448;-72
2022/12/20 09:48:45;;;;;;;26.12;10.90;;;;;;;-0.02;100.00;100078.09;4477355;32;20100;-72
2022/12/20 09:51:29;;;;;;;29.15;9.50;;;;;;;0.05;100.00;100079.62;4482574;31;20141;-72
2022/12/20 09:54:21;;;;;;;23.70;9.45;;;;;;;0.28;100.00;100081.63;4474640;31;20096;-72
2022/12/20 09:57:22;;;;;;;19.85;8.88;;;;;;;0.37;100.00;100083.12;4479611;32;20103;-72
2022/12/20 09:59:50;;;;;;;24.55;9.40;;;;;;;0.18;100.00;100075.00;4479241;32;20104;-72
2022/12/20 10:02:22;;;;;;;23.45;9.45;;;;;;;0.14;100.00;100074.25;4476567;32;20522;-72
2022/12/20 10:05:21;;;;;;;27.83;10.07;;;;;;;0.26;100.00;100083.41;4475597;32;20108;-72
2022/12/20 10:08:08;;;;;;;25.92;9.35;;;;;;;0.48;100.00;100064.78;4472532;32;20108;-72
2022/12/20 10:10:38;;;;;;;22.33;8.48;;;;;;;0.75;100.00;100070.09;4478150;32;20524;-73
2022/12/20 10:13:33;;;;;;;30.15;11.20;;;;;;;0.66;100.00;100068.59;4481252;31;20141;-73
2022/12/20 10:16:27;;;;;;;23.55;9.82;;;;;;;0.51;100.00;100062.97;4483665;31;20104;-72
2022/12/20 10:19:16;;;;;;;29.60;9.30;;;;;;;0.69;100.00;100048.72;4481910;31;20084;-73
2022/12/20 10:22:00;;;;;;;24.30;10.57;;;;;;;0.81;100.00;100060.44;4478870;32;20139;-73
2022/12/20 10:24:32;;;;;;;25.35;9.60;;;;;;;0.78;100.00;100060.50;4477816;31;20115;-74
2022/12/20 10:27:19;;;;;;;18.95;7.40;;;;;;;0.87;100.00;100064.56;4480328;31;20152;-73
2022/12/20 10:29:48;;;;;;;27.42;11.12;;;;;;;1.04;100.00;100046.84;4477913;32;20104;-73
2022/12/20 10:32:21;;;;;;;25.42;9.32;;;;;;;1.17;100.00;100041.34;4474191;31;20159;-73
2022/12/20 10:34:56;;;;;;;23.08;9.93;;;;;;;1.23;100.00;100034.25;4485188;31;20110;-74
2022/12/20 10:37:24;;;;;;;32.17;10.35;;;;;;;1.34;100.00;100033.09;4478677;32;20180;-74
2022/12/20 10:39:52;;;;;;;25.67;10.15;;;;;;;1.14;100.00;100031.97;4482454;32;20076;-76
2022/12/20 10:42:25;;;;;;;20.10;8.63;;;;;;;1.15;100.00;100023.34;4474280;32;20104;-74
2022/12/20 10:44:54;;;;;;;33.78;9.90;;;;;;;1.03;100.00;100018.50;4482974;32;20815;-74
2022/12/20 10:47:42;;;;;;;25.15;9.35;;;;;;;1.02;100.00;100022.00;4476905;31;20104;-76
2022/12/20 10:50:20;;;;;;;17.27;7.03;;;;;;;0.96;100.00;100010.13;4474098;32;20103;-74
2022/12/20 10:53:02;;;;;;;32.75;11.88;;;;;;;0.98;100.00;100008.34;4481641;31;20079;-75
2022/12/20 10:55:40;;;;;;;24.20;9.77;;;;;;;0.99;100.00;100001.47;4484783;32;20136;-75
2022/12/20 10:58:41;;;;;;;27.00;8.93;;;;;;;1.47;100.00;100000.84;4479589;31;20119;-75
2022/12/20 11:01:17;;;;;;;34.45;10.52;;;;;;;1.44;100.00;99995.78;4482065;31;20151;-77
2022/12/20 11:03:53;;;;;;;27.02;9.88;;;;;;;1.42;100.00;99988.06;4480868;32;20096;-73
2022/12/20 11:06:26;;;;;;;26.85;10.15;;;;;;;1.47;100.00;99987.91;4475820;32;20114;-73
2022/12/20 11:09:31;;;;;;;31.55;10.65;;;;;;;1.44;100.00;99980.28;4467738;31;20178;-74
2022/12/20 11:12:15;;;;;;;33.83;10.40;;;;;;;1.47;100.00;99972.44;4468443;32;20172;-74
2022/12/20 11:14:46;;;;;;;27.27;9.90;;;;;;;1.59;100.00;99961.69;4468360;32;20539;-74
2022/12/20 11:17:13;;;;;;;24.10;10.13;;;;;;;1.41;100.00;99949.38;4473166;32;20159;-73
2022/12/20 11:19:46;;;;;;;24.70;10.43;;;;;;;1.20;100.00;99944.00;4481644;31;20137;-73
2022/12/20 11:22:37;;;;;;;33.58;9.75;;;;;;;1.53;100.00;99945.53;4480390;32;20101;-73
2022/12/20 11:25:19;;;;;;;32.15;9.05;;;;;;;1.76;100.00;99949.97;4481849;32;20118;-74
2022/12/20 11:27:59;;;;;;;26.45;10.32;;;;;;;1.68;100.00;99964.84;4483465;31;20119;-73
2022/12/20 11:30:49;;;;;;;31.12;9.27;;;;;;;1.53;100.00;99958.44;4478463;31;20123;-73